»·PEaware :: N973SE KSBP-KBFL

N973SE :: KSBP-KBFL

FLIGHT INFORMATION

Flight Status: Arrived
Operator: Privately registered:
United States
More flights under this callsign
Pilot: Stig E. (4778)
Aircraft: Unknown
(DA62)
More flights by this aircraft type
Origin: KSBP San Luis Co Regl
United States
Destination: KBFL Meadows
United States
More flights between these airports :: More routes between these airports
Route: FLW GMN FASTO FASTO2
File this flight plan on PilotEdge
Remarks:
Altitude:
(Current/Filed)
9,500ft
Speed:
(Current/Filed)
170kts
Departed: 12-Aug-18 11:19 PM
Arrived: 13-Aug-18 12:59 AM
Distance/Time
Traveled:
0nm/1:40
Distance/Time
To Go:
Arrived

Flight Plot

Page will automatically refresh every two minutes.

Flight plan parsing failed; only flown route is shown


Map Options




Map Legend


Flown Route
Filed Route
Departure Airport
Arrival Airport
Navaid (VOR, NDB)
Fix

Horizontal Profiles

Position Reports

Time Latitude Longitude Heading Altitude Ground
Speed
12-Aug-18 23:03 35.238073 -120.638652 270 196ft 0kts
12-Aug-18 23:04 35.238073 -120.638652 270 196ft 0kts
12-Aug-18 23:05 35.238073 -120.638652 270 196ft 0kts
12-Aug-18 23:06 35.238073 -120.638652 270 196ft 0kts
12-Aug-18 23:07 35.238073 -120.638652 270 196ft 0kts
12-Aug-18 23:08 35.238073 -120.638652 270 196ft 0kts
12-Aug-18 23:09 35.238073 -120.638652 270 196ft 0kts
12-Aug-18 23:10 35.238073 -120.638652 270 196ft 0kts
12-Aug-18 23:11 35.238073 -120.638652 270 196ft 0kts
12-Aug-18 23:12 35.238073 -120.638652 270 196ft 0kts
12-Aug-18 23:13 35.238073 -120.638652 270 196ft 0kts
12-Aug-18 23:14 35.238073 -120.638652 270 196ft 0kts
12-Aug-18 23:15 35.238073 -120.638652 270 196ft 0kts
12-Aug-18 23:16 35.237997 -120.638907 200 195ft 4kts
12-Aug-18 23:17 35.237491 -120.638928 183 195ft 7kts
12-Aug-18 23:18 35.235638 -120.636105 123 206ft 13kts
12-Aug-18 23:19 35.233237 -120.632391 214 212ft 2kts
12-Aug-18 23:20 35.234421 -120.635916 306 206ft 71kts
12-Aug-18 23:21 35.250202 -120.659512 308 1152ft 93kts
12-Aug-18 23:22 35.242508 -120.681039 173 2413ft 93kts
12-Aug-18 23:23 35.225693 -120.657047 123 3636ft 97kts
12-Aug-18 23:24 35.214623 -120.627411 97 4853ft 99kts
12-Aug-18 23:25 35.210425 -120.593753 98 6067ft 101kts
12-Aug-18 23:26 35.205630 -120.559599 99 7265ft 103kts
12-Aug-18 23:27 35.200451 -120.524895 99 8450ft 105kts
12-Aug-18 23:28 35.194917 -120.488978 99 9492ft 121kts
12-Aug-18 23:29 35.186910 -120.438070 100 9505ft 168kts
12-Aug-18 23:30 35.181389 -120.403382 99 9504ft 172kts
12-Aug-18 23:31 35.181389 -120.403382 99 9504ft 172kts
12-Aug-18 23:32 35.181389 -120.403382 99 9504ft 172kts
12-Aug-18 23:33 35.181389 -120.403382 99 9504ft 172kts
12-Aug-18 23:34 35.181389 -120.403382 99 9504ft 172kts
12-Aug-18 23:35 35.181389 -120.403382 99 9504ft 172kts
12-Aug-18 23:36 35.181389 -120.403382 99 9504ft 172kts
12-Aug-18 23:37 35.181389 -120.403382 99 9504ft 172kts
12-Aug-18 23:38 35.181389 -120.403382 99 9504ft 172kts
12-Aug-18 23:39 35.181389 -120.403382 99 9504ft 172kts
12-Aug-18 23:40 35.181389 -120.403382 99 9504ft 172kts
12-Aug-18 23:41 35.181389 -120.403382 99 9504ft 172kts
12-Aug-18 23:42 35.181389 -120.403382 99 9504ft 172kts
12-Aug-18 23:43 35.181389 -120.403382 99 9504ft 172kts
12-Aug-18 23:44 35.181389 -120.403382 99 9504ft 172kts
12-Aug-18 23:45 35.181389 -120.403382 99 9504ft 172kts
12-Aug-18 23:46 35.181389 -120.403382 99 9504ft 172kts
12-Aug-18 23:47 35.181389 -120.403382 99 9504ft 172kts
12-Aug-18 23:48 35.181389 -120.403382 99 9504ft 172kts
12-Aug-18 23:49 35.181389 -120.403382 99 9504ft 172kts
12-Aug-18 23:50 35.181389 -120.403382 99 9504ft 172kts
12-Aug-18 23:51 35.181389 -120.403382 99 9504ft 172kts
12-Aug-18 23:52 35.181389 -120.403382 99 9504ft 172kts
12-Aug-18 23:53 35.181389 -120.403382 99 9504ft 172kts
12-Aug-18 23:54 35.181389 -120.403382 99 9504ft 172kts
12-Aug-18 23:55 35.181389 -120.403382 99 9504ft 172kts
12-Aug-18 23:56 35.181389 -120.403382 99 9504ft 172kts
12-Aug-18 23:57 35.181389 -120.403382 99 9504ft 172kts
12-Aug-18 23:58 35.181389 -120.403382 99 9504ft 172kts
12-Aug-18 23:59 35.181389 -120.403382 99 9504ft 172kts
13-Aug-18 00:00 35.181389 -120.403382 99 9504ft 172kts
13-Aug-18 00:01 35.181389 -120.403382 99 9504ft 172kts
13-Aug-18 00:02 35.181389 -120.403382 99 9504ft 172kts
13-Aug-18 00:03 35.181389 -120.403382 99 9504ft 172kts
13-Aug-18 00:04 35.181389 -120.403382 99 9504ft 172kts
13-Aug-18 00:05 35.181389 -120.403382 99 9504ft 172kts
13-Aug-18 00:06 35.181389 -120.403382 99 9504ft 172kts
13-Aug-18 00:07 35.181389 -120.403382 99 9504ft 172kts
13-Aug-18 00:08 35.181389 -120.403382 99 9504ft 172kts
13-Aug-18 00:09 35.181389 -120.403382 99 9504ft 172kts
13-Aug-18 00:10 35.181389 -120.403382 99 9504ft 172kts
13-Aug-18 00:11 35.180936 -120.400546 99 9504ft 172kts
13-Aug-18 00:12 35.171684 -120.343016 101 9505ft 173kts
13-Aug-18 00:13 35.162096 -120.285286 100 9507ft 173kts
13-Aug-18 00:14 35.152651 -120.227425 100 9509ft 174kts
13-Aug-18 00:15 35.143202 -120.169288 100 9509ft 174kts
13-Aug-18 00:16 35.133757 -120.111232 100 9509ft 174kts
13-Aug-18 00:17 35.124299 -120.053237 100 9509ft 174kts
13-Aug-18 00:18 35.114837 -119.995386 100 9509ft 174kts
13-Aug-18 00:19 35.105354 -119.937571 100 9509ft 173kts
13-Aug-18 00:20 35.096020 -119.879831 99 9509ft 173kts
13-Aug-18 00:21 35.080395 -119.824102 110 9509ft 173kts
13-Aug-18 00:22 35.063770 -119.768773 108 9509ft 173kts
13-Aug-18 00:23 35.047793 -119.713129 108 9494ft 174kts
13-Aug-18 00:24 35.031891 -119.656985 107 9474ft 175kts
13-Aug-18 00:25 35.015993 -119.600656 107 9458ft 176kts
13-Aug-18 00:26 35.000007 -119.544007 107 9445ft 177kts
13-Aug-18 00:27 34.984093 -119.487684 106 9521ft 174kts
13-Aug-18 00:28 34.968195 -119.431510 106 9522ft 176kts
13-Aug-18 00:29 34.952220 -119.375239 106 9517ft 175kts
13-Aug-18 00:30 34.936153 -119.319413 106 9510ft 175kts
13-Aug-18 00:31 34.920093 -119.263709 106 9501ft 173kts
13-Aug-18 00:32 34.906942 -119.217800 106 9501ft 172kts
13-Aug-18 00:33 34.888664 -119.154292 106 9499ft 169kts
13-Aug-18 00:34 34.873144 -119.100359 106 9501ft 168kts
13-Aug-18 00:35 34.860313 -119.055712 106 9507ft 167kts
13-Aug-18 00:36 34.845019 -119.002495 106 9540ft 166kts
13-Aug-18 00:37 34.827300 -118.940912 106 9600ft 164kts
13-Aug-18 00:38 34.815191 -118.896853 105 9641ft 164kts
13-Aug-18 00:39 34.806347 -118.844121 55 9689ft 161kts
13-Aug-18 00:40 34.849812 -118.841397 352 9436ft 165kts
13-Aug-18 00:41 34.894637 -118.852788 353 8760ft 163kts
13-Aug-18 00:42 34.942555 -118.858173 355 7957ft 173kts
13-Aug-18 00:43 34.990069 -118.860003 356 7356ft 169kts
13-Aug-18 00:44 35.036626 -118.860532 356 6766ft 165kts
13-Aug-18 00:45 35.082254 -118.860612 356 6170ft 162kts
13-Aug-18 00:46 35.126790 -118.860540 356 5589ft 159kts
13-Aug-18 00:47 35.170748 -118.860416 357 5018ft 156kts
13-Aug-18 00:48 35.211261 -118.860483 355 4862ft 119kts
13-Aug-18 00:49 35.240547 -118.859865 356 4795ft 94kts
13-Aug-18 00:50 35.266344 -118.859119 355 4800ft 92kts
13-Aug-18 00:51 35.286768 -118.879357 315 4461ft 99kts
13-Aug-18 00:52 35.306087 -118.902409 315 3951ft 95kts
13-Aug-18 00:53 35.325052 -118.925150 316 3438ft 95kts
13-Aug-18 00:54 35.343947 -118.947858 316 2920ft 95kts
13-Aug-18 00:55 35.362774 -118.970510 317 2403ft 94kts
13-Aug-18 00:56 35.381466 -118.993018 317 1910ft 88kts
13-Aug-18 00:57 35.397784 -119.012674 317 1447ft 80kts
13-Aug-18 00:58 35.413896 -119.032097 317 1016ft 81kts
13-Aug-18 00:59 35.429909 -119.051467 318 594ft 81kts
13-Aug-18 01:00 35.440165 -119.062736 359 497ft 14kts
13-Aug-18 01:01 35.440061 -119.061489 135 497ft 17kts
13-Aug-18 01:02 35.436124 -119.055307 21 497ft 17kts
13-Aug-18 01:06 35.238073 -120.638652 270 196ft 0kts
13-Aug-18 01:07 35.238073 -120.638652 270 196ft 0kts

Navigation Log

Ident Type
Flight plan parsing failed, navigation log unavailable